Time;durP1;ratioP1;P1;durP2;ratioP2;P2;SDS_P1;SDS_P2;PMS_P1;PMS_P2;Temp;Humidity;BMP_temperature;BMP_pressure;BME280_temperature;BME280_humidity;BME280_pressure;Samples;Min_cycle;Max_cycle;Signal;HPM_P1;HPM_P2
2024/03/11 00:01:19;;;;;;;10.43;5.57;;;;;;;11.43;100.00;99338.38;6252482;28;20489;-73
2024/03/11 00:04:21;;;;;;;11.02;5.45;;;;;;;11.41;100.00;99335.88;6250050;28;20049;-69
2024/03/11 00:07:23;;;;;;;8.38;4.90;;;;;;;11.48;100.00;99336.25;6249494;28;20050;-70
2024/03/11 00:10:24;;;;;;;7.55;4.50;;;;;;;11.40;100.00;99333.38;6250998;28;20050;-70
2024/03/11 00:13:34;;;;;;;9.68;5.40;;;;;;;11.47;100.00;99331.97;6266532;28;20056;-70
2024/03/11 00:16:35;;;;;;;9.75;4.75;;;;;;;11.40;100.00;99328.97;6251055;28;20494;-70
2024/03/11 00:19:36;;;;;;;8.57;4.85;;;;;;;11.50;100.00;99322.09;6250760;28;20060;-73
2024/03/11 00:22:37;;;;;;;9.07;4.53;;;;;;;11.46;100.00;99331.13;6250453;28;20136;-73
2024/03/11 00:25:40;;;;;;;8.43;4.53;;;;;;;11.47;100.00;99330.19;6281895;28;20080;-74
2024/03/11 00:28:44;;;;;;;11.48;4.50;;;;;;;11.53;100.00;99325.44;6249409;28;20056;-70
2024/03/11 00:31:45;;;;;;;7.05;4.50;;;;;;;11.45;100.00;99319.03;6252329;28;20507;-73
2024/03/11 00:34:46;;;;;;;7.50;4.63;;;;;;;11.57;100.00;99327.72;6263777;28;20045;-69
2024/03/11 00:37:47;;;;;;;9.63;4.45;;;;;;;11.58;100.00;99324.13;6262687;28;20048;-73
2024/03/11 00:40:49;;;;;;;11.20;4.72;;;;;;;11.50;100.00;99324.72;6261729;28;20045;-70
2024/03/11 00:43:50;;;;;;;10.25;3.95;;;;;;;11.55;100.00;99320.91;6250096;28;20049;-70
2024/03/11 00:46:51;;;;;;;9.57;4.22;;;;;;;11.62;100.00;99316.91;6250794;28;20045;-69
2024/03/11 00:49:55;;;;;;;7.15;4.18;;;;;;;11.52;100.00;99324.59;6251664;28;20420;-69
2024/03/11 00:52:57;;;;;;;6.55;3.55;;;;;;;11.59;100.00;99324.97;6247579;28;20413;-73
2024/03/11 00:55:59;;;;;;;8.48;3.92;;;;;;;11.60;100.00;99316.19;6255753;28;20510;-69
2024/03/11 00:59:00;;;;;;;8.52;4.57;;;;;;;11.59;100.00;99317.97;6249153;28;20069;-69
2024/03/11 01:02:01;;;;;;;7.50;4.10;;;;;;;11.56;100.00;99314.75;6250104;28;20523;-70
2024/03/11 01:05:02;;;;;;;7.90;4.20;;;;;;;11.55;100.00;99327.00;6263655;28;20053;-70
2024/03/11 01:08:03;;;;;;;8.38;4.03;;;;;;;11.56;100.00;99322.59;6264382;28;20088;-70
2024/03/11 01:11:04;;;;;;;11.70;4.88;;;;;;;11.56;100.00;99315.59;6257515;28;20084;-73
2024/03/11 01:14:05;;;;;;;9.57;4.28;;;;;;;11.55;100.00;99324.38;6265189;28;20045;-73
2024/03/11 01:17:06;;;;;;;12.18;4.65;;;;;;;11.56;100.00;99330.44;6253373;28;20130;-69
2024/03/11 01:20:09;;;;;;;6.13;3.90;;;;;;;11.58;100.00;99323.31;6248803;28;20060;-69
2024/03/11 01:23:13;;;;;;;7.55;3.92;;;;;;;11.48;100.00;99323.19;6247893;28;20449;-73
2024/03/11 01:26:14;;;;;;;9.18;4.20;;;;;;;11.51;100.00;99320.34;6265381;28;20124;-73
2024/03/11 01:29:15;;;;;;;8.30;4.18;;;;;;;11.46;100.00;99317.25;6262929;28;20069;-73
2024/03/11 01:32:16;;;;;;;9.32;4.13;;;;;;;11.46;100.00;99320.66;6261522;28;20054;-70
2024/03/11 01:35:17;;;;;;;6.32;3.72;;;;;;;11.42;100.00;99315.81;6252884;28;20490;-70
2024/03/11 01:38:19;;;;;;;12.30;3.50;;;;;;;11.34;100.00;99315.56;6249232;28;20053;-73
2024/03/11 01:41:19;;;;;;;7.60;3.90;;;;;;;11.39;100.00;99318.66;6247492;28;20057;-74
2024/03/11 01:44:21;;;;;;;8.75;4.05;;;;;;;11.33;100.00;99322.56;6253477;28;20049;-73
2024/03/11 01:47:25;;;;;;;6.88;3.45;;;;;;;11.33;100.00;99317.34;6271615;28;20532;-73
2024/03/11 01:50:26;;;;;;;7.85;4.03;;;;;;;11.20;100.00;99319.22;6271537;28;20049;-73
2024/03/11 01:53:28;;;;;;;7.10;4.00;;;;;;;11.17;100.00;99322.06;6267424;28;20516;-73
2024/03/11 01:56:29;;;;;;;6.82;4.05;;;;;;;11.10;100.00;99319.09;6257567;28;20108;-73
2024/03/11 01:59:37;;;;;;;7.93;4.50;;;;;;;11.17;100.00;99314.22;6264131;28;20075;-73
2024/03/11 02:02:38;;;;;;;7.70;4.10;;;;;;;11.21;100.00;99307.81;6263459;28;20053;-73
2024/03/11 02:05:42;;;;;;;7.20;4.55;;;;;;;11.13;100.00;99307.56;6271258;28;20140;-70
2024/03/11 02:08:43;;;;;;;7.25;4.05;;;;;;;11.12;100.00;99313.72;6264487;28;20049;-74
2024/03/11 02:11:47;;;;;;;9.15;3.80;;;;;;;11.06;100.00;99309.81;6248014;28;20107;-74
2024/03/11 02:14:48;;;;;;;7.72;4.65;;;;;;;11.15;100.00;99314.34;6256485;28;20044;-73
2024/03/11 02:17:53;;;;;;;8.68;4.20;;;;;;;11.17;100.00;99309.00;6249892;28;20096;-70
2024/03/11 02:20:56;;;;;;;8.68;3.53;;;;;;;11.11;100.00;99314.69;6253332;28;20057;-73
2024/03/11 02:23:57;;;;;;;;;;;;;;;11.09;100.00;99310.41;6255802;28;20071;-73
2024/03/11 02:26:58;;;;;;;7.55;4.13;;;;;;;11.13;100.00;99302.34;6257909;28;19956;-70
2024/03/11 02:29:59;;;;;;;7.20;3.83;;;;;;;11.11;100.00;99302.47;6249935;28;20145;-73
2024/03/11 02:33:00;;;;;;;10.05;4.20;;;;;;;11.07;100.00;99298.41;6270596;28;20422;-73
2024/03/11 02:36:01;;;;;;;7.25;3.78;;;;;;;11.10;100.00;99298.19;6264656;28;20169;-74
2024/03/11 02:39:07;;;;;;;11.27;4.45;;;;;;;11.07;100.00;99294.00;6258697;28;20177;-71
2024/03/11 02:42:08;;;;;;;5.22;3.63;;;;;;;11.04;100.00;99301.28;6265696;28;20443;-69
2024/03/11 02:45:12;;;;;;;7.88;4.18;;;;;;;11.10;100.00;99298.19;6260844;28;20076;-73
2024/03/11 02:48:13;;;;;;;10.73;4.30;;;;;;;11.11;100.00;99291.19;6266599;28;20599;-69
2024/03/11 02:51:14;;;;;;;5.72;4.00;;;;;;;11.05;100.00;99288.06;6248202;28;20053;-69
2024/03/11 02:54:16;;;;;;;6.82;3.83;;;;;;;11.14;100.00;99293.56;6250432;28;20091;-73
2024/03/11 02:57:19;;;;;;;7.05;3.92;;;;;;;11.14;100.00;99296.16;6270149;28;20071;-73
2024/03/11 03:00:21;;;;;;;6.90;3.85;;;;;;;11.15;100.00;99287.41;6267429;28;20053;-73
2024/03/11 03:03:23;;;;;;;12.73;5.00;;;;;;;11.12;100.00;99292.84;6256048;28;20144;-73
2024/03/11 03:06:26;;;;;;;6.90;3.80;;;;;;;11.07;100.00;99285.34;6264130;28;20067;-73
2024/03/11 03:09:29;;;;;;;6.65;3.92;;;;;;;11.02;100.00;99290.09;6257417;28;20076;-69
2024/03/11 03:12:35;;;;;;;8.73;3.78;;;;;;;11.17;100.00;99286.34;6271008;28;20056;-69
2024/03/11 03:15:36;;;;;;;5.85;4.20;;;;;;;11.24;100.00;99284.06;6270420;28;20049;-69
2024/03/11 03:18:39;;;;;;;8.05;4.32;;;;;;;11.14;100.00;99286.56;6261960;28;20553;-69
2024/03/11 03:21:40;;;;;;;8.98;3.83;;;;;;;11.17;100.00;99283.72;6247414;28;20073;-69
2024/03/11 03:24:41;;;;;;;9.57;4.45;;;;;;;11.23;100.00;99295.50;6253597;28;20110;-71
2024/03/11 03:27:43;;;;;;;7.90;4.20;;;;;;;11.26;100.00;99290.00;6266585;28;20053;-70
2024/03/11 03:30:46;;;;;;;8.20;4.15;;;;;;;11.24;100.00;99271.88;6265904;28;20091;-70
2024/03/11 03:33:48;;;;;;;5.72;3.67;;;;;;;11.18;100.00;99274.94;6262510;28;20052;-74
2024/03/11 03:36:53;;;;;;;7.10;4.30;;;;;;;11.17;100.00;99275.06;6264326;28;20127;-73
2024/03/11 03:39:54;;;;;;;7.03;3.75;;;;;;;11.09;100.00;99275.63;6270606;28;20131;-69
2024/03/11 03:42:55;;;;;;;7.50;3.88;;;;;;;11.19;100.00;99276.59;6264114;28;20466;-74
2024/03/11 03:45:56;;;;;;;8.07;4.32;;;;;;;11.10;100.00;99277.31;6267513;28;20052;-73
2024/03/11 03:48:58;;;;;;;10.05;4.35;;;;;;;11.14;100.00;99270.06;6257366;28;20046;-69
2024/03/11 03:51:59;;;;;;;6.57;3.95;;;;;;;11.14;100.00;99270.91;6259802;28;20520;-73
2024/03/11 03:55:00;;;;;;;7.50;3.90;;;;;;;11.19;100.00;99271.38;6264509;28;20089;-73
2024/03/11 03:58:01;;;;;;;7.78;4.18;;;;;;;11.07;100.00;99274.91;6266526;28;20100;-74
2024/03/11 04:01:03;;;;;;;9.65;4.75;;;;;;;11.05;100.00;99267.19;6263295;28;20476;-74
2024/03/11 04:04:04;;;;;;;7.10;4.28;;;;;;;11.16;100.00;99262.94;6269796;28;20057;-69
2024/03/11 04:07:05;;;;;;;13.48;4.18;;;;;;;11.19;100.00;99267.94;6251128;28;20136;-69
2024/03/11 04:10:12;;;;;;;9.50;4.43;;;;;;;11.11;100.00;99254.63;6258427;28;20426;-70
2024/03/11 04:13:16;;;;;;;7.00;4.15;;;;;;;11.08;100.00;99258.31;6261195;28;20064;-74
2024/03/11 04:16:17;;;;;;;9.52;4.75;;;;;;;11.03;100.00;99261.25;6271764;28;20083;-74
2024/03/11 04:19:18;;;;;;;9.85;4.18;;;;;;;11.15;100.00;99261.28;6271774;28;20712;-73
2024/03/11 04:22:19;;;;;;;6.95;4.40;;;;;;;11.23;100.00;99267.59;6262225;28;20053;-70
2024/03/11 04:25:28;;;;;;;6.95;4.30;;;;;;;11.18;100.00;99264.50;6253717;28;20042;-70
2024/03/11 04:28:29;;;;;;;8.95;4.32;;;;;;;11.18;100.00;99261.91;6251193;28;20107;-69
2024/03/11 04:31:32;;;;;;;7.45;3.70;;;;;;;11.29;100.00;99271.53;6257505;28;20067;-74
2024/03/11 04:34:34;;;;;;;8.45;4.78;;;;;;;11.38;100.00;99272.59;6256770;28;20477;-69
2024/03/11 04:37:35;;;;;;;10.15;4.63;;;;;;;11.34;100.00;99265.94;6264213;28;20109;-69
2024/03/11 04:53:05;;;;;;;8.88;4.60;;;;;;;11.23;100.00;99258.94;6321464;27;20368;-73
2024/03/11 04:56:06;;;;;;;8.38;4.65;;;;;;;11.22;100.00;99265.09;6283479;28;20060;-69
2024/03/11 04:59:08;;;;;;;10.63;4.70;;;;;;;11.20;100.00;99259.16;6279137;28;20168;-69
2024/03/11 05:02:09;;;;;;;15.05;4.82;;;;;;;11.22;100.00;99265.09;6273784;28;20053;-70
2024/03/11 05:05:10;;;;;;;18.83;4.63;;;;;;;11.19;100.00;99266.16;6273927;28;20057;-70
2024/03/11 05:08:14;;;;;;;10.50;5.13;;;;;;;11.20;100.00;99261.75;6275900;28;20057;-70
2024/03/11 05:11:14;;;;;;;8.70;4.35;;;;;;;11.09;100.00;99271.25;6276065;28;20053;-70
2024/03/11 05:14:15;;;;;;;12.32;4.85;;;;;;;11.16;100.00;99262.94;6283757;28;20065;-70
2024/03/11 05:17:16;;;;;;;8.40;4.05;;;;;;;11.13;100.00;99258.78;6265422;28;20511;-70
2024/03/11 05:20:18;;;;;;;7.32;4.03;;;;;;;11.20;100.00;99270.44;6271886;28;20067;-71
2024/03/11 05:23:19;;;;;;;10.90;4.93;;;;;;;11.12;100.00;99275.41;6271432;28;20049;-70
2024/03/11 05:26:20;;;;;;;10.10;5.00;;;;;;;11.15;100.00;99285.63;6260538;28;20056;-70
2024/03/11 05:29:21;;;;;;;9.18;5.07;;;;;;;11.19;100.00;99271.38;6261119;28;20067;-70
2024/03/11 05:32:24;;;;;;;10.80;4.88;;;;;;;11.16;100.00;99282.06;6261987;28;20136;-70
2024/03/11 05:35:26;;;;;;;8.55;4.68;;;;;;;11.13;100.00;99277.06;6263035;28;20095;-75
2024/03/11 05:38:27;;;;;;;9.40;4.63;;;;;;;11.11;100.00;99288.59;6276380;28;20052;-70
2024/03/11 05:41:28;;;;;;;6.85;4.25;;;;;;;11.12;100.00;99282.41;6283198;28;20053;-70
2024/03/11 05:44:29;;;;;;;9.75;4.80;;;;;;;11.12;100.00;99291.09;6272742;28;20057;-70
2024/03/11 05:47:30;;;;;;;10.05;5.13;;;;;;;11.17;100.00;99285.50;6267321;28;20056;-70
2024/03/11 05:50:32;;;;;;;9.32;4.43;;;;;;;11.08;100.00;99290.47;6266003;28;20060;-70
2024/03/11 05:53:37;;;;;;;10.52;4.43;;;;;;;11.06;100.00;99302.00;6269315;28;20063;-71
2024/03/11 05:56:38;;;;;;;11.82;5.35;;;;;;;11.01;100.00;99299.69;6262654;28;20045;-70
2024/03/11 05:59:39;;;;;;;14.73;6.55;;;;;;;11.08;100.00;99306.13;6260753;28;20045;-71
2024/03/11 06:02:40;;;;;;;12.13;5.70;;;;;;;11.03;100.00;99304.81;6259490;28;20048;-71
2024/03/11 06:05:43;;;;;;;10.65;6.45;;;;;;;11.07;100.00;99298.41;6260294;28;20503;-71
2024/03/11 06:08:44;;;;;;;17.05;7.38;;;;;;;11.13;100.00;99303.19;6236811;28;20054;-71
2024/03/11 06:11:48;;;;;;;14.23;6.93;;;;;;;11.15;100.00;99303.88;6246837;28;20416;-70
2024/03/11 06:14:51;;;;;;;12.68;6.72;;;;;;;11.08;100.00;99302.69;6270235;28;20089;-71
2024/03/11 06:17:52;;;;;;;11.30;5.82;;;;;;;11.09;100.00;99304.34;6234456;28;20151;-71
2024/03/11 06:20:53;;;;;;;13.40;5.90;;;;;;;11.15;100.00;99303.06;6228018;28;20054;-70
2024/03/11 06:23:54;;;;;;;8.98;5.25;;;;;;;11.11;100.00;99307.69;6230191;28;20060;-71
2024/03/11 06:26:56;;;;;;;11.45;4.60;;;;;;;11.20;100.00;99316.59;6232861;28;20568;-71
2024/03/11 06:29:57;;;;;;;;;;;;;;;11.26;100.00;99318.75;6273971;28;20106;-71
2024/03/11 06:32:59;;;;;;;11.30;5.05;;;;;;;11.14;100.00;99319.66;6252178;28;19920;-76
2024/03/11 06:36:03;;;;;;;13.82;5.70;;;;;;;11.18;100.00;99323.72;6248104;28;20144;-76
2024/03/11 06:39:06;;;;;;;11.05;6.35;;;;;;;11.33;100.00;99335.63;6249502;28;20058;-76
2024/03/11 06:42:07;;;;;;;11.13;6.05;;;;;;;11.32;100.00;99333.94;6269832;28;20400;-71
2024/03/11 06:45:08;;;;;;;12.43;5.97;;;;;;;11.26;100.00;99340.50;6257011;28;20087;-71
2024/03/11 06:48:10;;;;;;;14.32;7.57;;;;;;;11.31;100.00;99332.31;6249378;28;20050;-72
2024/03/11 06:51:12;;;;;;;20.25;7.47;;;;;;;11.27;100.00;99326.47;6239130;28;20057;-72
2024/03/11 06:54:13;;;;;;;12.80;6.25;;;;;;;11.14;100.00;99323.13;6240720;28;20099;-72
2024/03/11 06:57:13;;;;;;;12.38;5.57;;;;;;;11.22;100.00;99328.59;6244914;28;20398;-73
2024/03/11 07:00:17;;;;;;;13.07;5.93;;;;;;;11.27;100.00;99334.31;6223873;28;20493;-78
2024/03/11 07:03:18;;;;;;;11.63;5.47;;;;;;;11.25;100.00;99335.38;6244417;28;20053;-78
2024/03/11 07:06:19;;;;;;;12.18;6.03;;;;;;;11.27;100.00;99325.66;6245009;28;20046;-72
2024/03/11 07:09:20;;;;;;;10.98;5.93;;;;;;;11.26;100.00;99329.19;6239435;28;20457;-72
2024/03/11 07:12:21;;;;;;;11.63;5.60;;;;;;;11.17;100.00;99325.50;6247278;28;20049;-72
2024/03/11 07:15:23;;;;;;;16.48;5.82;;;;;;;11.26;100.00;99324.81;6248444;28;20417;-72
2024/03/11 07:18:26;;;;;;;13.50;8.35;;;;;;;11.33;100.00;99325.19;6248445;28;20123;-78
2024/03/11 07:21:29;;;;;;;;;;;;;;;11.45;100.00;99328.66;6248632;28;20196;-78
2024/03/11 07:24:30;;;;;;;10.35;5.70;;;;;;;11.47;100.00;99327.56;6247059;28;20391;-71
2024/03/11 07:27:31;;;;;;;14.57;5.70;;;;;;;11.54;100.00;99327.94;6243819;28;20042;-72
2024/03/11 07:30:32;;;;;;;16.30;6.30;;;;;;;11.57;100.00;99324.25;6236701;28;20052;-72
2024/03/11 07:33:33;;;;;;;8.10;5.60;;;;;;;11.61;100.00;99328.28;6223351;28;20054;-72
2024/03/11 07:36:35;;;;;;;11.15;5.72;;;;;;;11.64;100.00;99317.63;6240600;28;20045;-72
2024/03/11 07:39:36;;;;;;;9.00;5.15;;;;;;;11.62;100.00;99320.34;6227645;28;20046;-72
2024/03/11 07:42:38;;;;;;;13.95;5.38;;;;;;;11.61;100.00;99318.69;6234117;28;20068;-71
2024/03/11 07:45:40;;;;;;;8.05;4.95;;;;;;;11.64;100.00;99307.16;6223168;28;20050;-78
2024/03/11 07:48:43;;;;;;;12.70;5.33;;;;;;;11.77;100.00;99312.25;6246533;28;20050;-78
2024/03/11 07:51:44;;;;;;;14.45;5.43;;;;;;;11.91;100.00;99316.47;6246131;28;20066;-78
2024/03/11 07:54:45;;;;;;;9.45;5.32;;;;;;;11.90;100.00;99310.38;6247398;28;20049;-72
2024/03/11 07:57:46;;;;;;;12.13;5.50;;;;;;;12.04;100.00;99317.97;6247545;28;20104;-71
2024/03/11 08:00:47;;;;;;;13.88;5.90;;;;;;;12.20;100.00;99312.38;6247091;28;20045;-77
2024/03/11 08:03:48;;;;;;;10.52;5.68;;;;;;;12.21;100.00;99319.28;6246257;28;20398;-77
2024/03/11 08:06:49;;;;;;;12.98;5.45;;;;;;;12.27;98.46;99308.31;6238644;28;20060;-72
2024/03/11 08:09:50;;;;;;;9.48;5.63;;;;;;;12.65;98.05;99311.41;6246111;28;20045;-77
2024/03/11 08:12:51;;;;;;;10.27;5.03;;;;;;;12.82;96.39;99317.88;6246986;28;20075;-77
2024/03/11 08:15:52;;;;;;;15.05;6.22;;;;;;;13.03;95.93;99312.66;6247274;28;20057;-77
2024/03/11 08:18:53;;;;;;;12.27;5.78;;;;;;;12.95;92.64;99325.56;6245915;28;20068;-77
2024/03/11 08:21:54;;;;;;;11.27;4.80;;;;;;;12.99;92.96;99316.47;6247701;28;20045;-72
2024/03/11 08:24:57;;;;;;;12.18;4.88;;;;;;;13.03;92.21;99318.75;6245785;28;20053;-71
2024/03/11 08:27:58;;;;;;;9.70;5.25;;;;;;;13.18;91.73;99314.00;6245764;28;20045;-77
2024/03/11 08:31:02;;;;;;;11.57;5.78;;;;;;;13.43;91.50;99309.38;6246854;28;20057;-77
2024/03/11 08:34:02;;;;;;;10.20;6.00;;;;;;;13.55;90.13;99307.47;6259383;28;20485;-77
2024/03/11 08:37:04;;;;;;;10.35;4.90;;;;;;;13.50;88.34;99311.31;6221362;28;20049;-77
2024/03/11 08:40:08;;;;;;;10.18;4.68;;;;;;;13.64;88.12;99307.53;6246135;28;20053;-77
2024/03/11 08:43:09;;;;;;;14.18;5.35;;;;;;;13.28;87.31;99311.44;6250735;28;20053;-71
2024/03/11 08:46:11;;;;;;;11.57;5.65;;;;;;;13.53;88.08;99299.75;6270652;28;20057;-71
2024/03/11 08:49:12;;;;;;;8.50;4.78;;;;;;;13.47;88.86;99297.66;6251454;28;20049;-71
2024/03/11 08:52:14;;;;;;;9.43;5.32;;;;;;;13.27;89.45;99294.06;6246479;28;20053;-71
2024/03/11 08:55:17;;;;;;;14.77;5.53;;;;;;;13.52;88.09;99297.25;6260108;28;20049;-71
2024/03/11 08:58:19;;;;;;;10.02;5.25;;;;;;;13.55;89.22;99303.06;6263460;28;20057;-71
2024/03/11 09:01:21;;;;;;;18.27;6.38;;;;;;;13.70;87.92;99301.75;6246304;28;20401;-77
2024/03/11 09:04:21;;;;;;;11.35;5.45;;;;;;;13.69;87.55;99294.00;6246600;28;20069;-77
2024/03/11 09:07:22;;;;;;;10.27;5.25;;;;;;;13.92;87.64;99292.03;6240191;28;20060;-77
2024/03/11 09:10:23;;;;;;;9.90;5.25;;;;;;;13.81;85.65;99292.94;6245142;28;20045;-77
2024/03/11 09:13:25;;;;;;;10.13;5.13;;;;;;;13.98;84.79;99296.75;6245116;28;20405;-77
2024/03/11 09:16:29;;;;;;;;;;;;;;;13.98;85.46;99295.91;6245522;28;20053;-77
2024/03/11 09:19:30;;;;;;;10.38;4.78;;;;;;;13.85;87.34;99301.38;6259585;28;19921;-77
2024/03/11 09:22:33;;;;;;;12.98;5.15;;;;;;;13.81;85.44;99298.19;6267901;28;20052;-77
2024/03/11 09:25:33;;;;;;;9.90;5.47;;;;;;;13.92;86.36;99292.03;6269770;28;20045;-71
2024/03/11 09:28:34;;;;;;;13.43;6.13;;;;;;;13.66;88.35;99294.28;6273203;28;20055;-71
2024/03/11 09:31:39;;;;;;;15.60;5.60;;;;;;;13.73;89.08;99281.47;6246355;28;20056;-71
2024/03/11 09:34:40;;;;;;;10.70;5.13;;;;;;;13.82;90.76;99273.66;6244307;28;20207;-71
2024/03/11 09:37:41;;;;;;;13.88;5.80;;;;;;;13.93;88.82;99264.84;6248513;28;20412;-71
2024/03/11 09:40:42;;;;;;;13.38;5.63;;;;;;;14.49;87.76;99266.84;6249158;28;20049;-71
2024/03/11 09:43:48;;;;;;;13.48;5.65;;;;;;;14.79;85.46;99278.22;6250385;28;20061;-71
2024/03/11 09:46:50;;;;;;;13.05;4.80;;;;;;;15.05;83.52;99283.72;6249215;28;20060;-71
2024/03/11 09:49:55;;;;;;;13.10;5.80;;;;;;;14.99;81.13;99281.66;6250542;28;20136;-75
2024/03/11 09:52:57;;;;;;;10.77;4.82;;;;;;;15.05;82.95;99285.50;6250109;28;20156;-71
2024/03/11 09:56:01;;;;;;;9.65;5.05;;;;;;;15.22;80.25;99276.09;6250527;28;20045;-70
2024/03/11 09:59:04;;;;;;;11.40;5.72;;;;;;;15.34;78.82;99264.44;6250164;28;20045;-71
2024/03/11 10:02:06;;;;;;;9.73;5.53;;;;;;;15.52;78.19;99261.84;6249876;28;20110;-71
2024/03/11 10:05:08;;;;;;;11.95;4.70;;;;;;;15.43;78.61;99263.56;6250023;28;20049;-70
2024/03/11 10:08:09;;;;;;;8.65;4.85;;;;;;;15.47;77.16;99264.91;6265285;28;20444;-70
2024/03/11 10:11:24;;;;;;;10.68;4.90;;;;;;;15.42;76.20;99250.53;6265283;28;20068;-71
2024/03/11 10:14:25;;;;;;;9.80;4.78;;;;;;;15.39;76.59;99245.59;6249808;28;20501;-77
2024/03/11 10:17:32;;;;;;;8.45;4.72;;;;;;;15.61;76.18;99249.66;6263717;28;20052;-77
2024/03/11 10:20:37;;;;;;;11.93;4.85;;;;;;;15.56;75.45;99247.44;6248901;28;20049;-76
2024/03/11 10:23:41;;;;;;;12.32;4.57;;;;;;;15.38;76.58;99251.81;6247395;28;20448;-77
2024/03/11 10:26:42;;;;;;;10.77;5.20;;;;;;;15.34;76.53;99238.16;6248937;28;20053;-76
2024/03/11 10:29:43;;;;;;;11.25;5.43;;;;;;;15.26;75.73;99245.91;6249130;28;20500;-77
2024/03/11 10:32:45;;;;;;;11.87;4.90;;;;;;;15.09;76.11;99235.19;6247570;28;20038;-76
2024/03/11 10:35:46;;;;;;;9.18;5.07;;;;;;;15.06;78.01;99256.47;6259090;28;20088;-76
2024/03/11 10:38:48;;;;;;;8.80;4.90;;;;;;;14.81;76.78;99241.31;6244974;28;20046;-76
2024/03/11 10:41:51;;;;;;;12.70;5.00;;;;;;;14.70;76.39;99223.91;6225713;28;20050;-77
2024/03/11 10:44:57;;;;;;;9.55;5.10;;;;;;;14.62;77.31;99223.75;6235347;28;20129;-70
2024/03/11 10:48:01;;;;;;;12.95;5.43;;;;;;;14.85;78.66;99214.63;6240389;28;20050;-76
2024/03/11 10:51:02;;;;;;;18.48;5.50;;;;;;;15.05;77.72;99204.91;6247436;28;20053;-76
2024/03/11 10:54:07;;;;;;;10.60;5.13;;;;;;;15.14;77.32;99208.47;6235924;28;20050;-77
2024/03/11 10:57:24;;;;;;;12.52;5.72;;;;;;;15.34;76.02;99211.88;6246348;28;20493;-76
2024/03/11 11:00:26;;;;;;;13.10;5.95;;;;;;;15.55;75.32;99216.88;6227755;28;20049;-76
2024/03/11 11:03:26;;;;;;;;;;;;;;;15.57;75.01;99214.13;6264570;28;20053;-76
2024/03/11 11:06:27;;;;;;;9.10;4.45;;;;;;;15.45;74.57;99205.59;6247470;28;19979;-76
2024/03/11 11:09:34;;;;;;;13.37;4.60;;;;;;;15.49;73.85;99205.13;6254661;28;20614;-77
2024/03/11 11:12:36;;;;;;;13.85;5.07;;;;;;;15.38;74.39;99199.22;6271914;28;20045;-76
2024/03/11 11:15:37;;;;;;;8.20;5.18;;;;;;;15.26;74.69;99198.63;6271541;28;20053;-76
2024/03/11 11:18:39;;;;;;;10.82;4.65;;;;;;;15.46;75.07;99192.31;6258219;28;20060;-76
2024/03/11 11:21:43;;;;;;;10.10;4.60;;;;;;;15.32;72.93;99201.50;6255514;28;20574;-76
2024/03/11 11:24:44;;;;;;;10.38;4.30;;;;;;;15.35;75.07;99207.44;6257916;28;20504;-76
2024/03/11 11:27:49;;;;;;;10.35;4.70;;;;;;;15.34;74.60;99214.50;6273052;28;20114;-76
2024/03/11 11:31:11;;;;;;;9.30;4.53;;;;;;;15.60;74.55;99206.75;6264451;28;20049;-74
2024/03/11 11:34:14;;;;;;;10.73;4.78;;;;;;;15.62;74.88;99204.78;6244805;28;20049;-68
2024/03/11 11:37:19;;;;;;;10.55;4.53;;;;;;;15.62;75.57;99206.59;6250342;28;20069;-74
2024/03/11 11:40:31;;;;;;;11.57;5.47;;;;;;;15.58;74.45;99205.25;6259410;28;20473;-68
2024/03/11 11:43:45;;;;;;;10.73;4.63;;;;;;;15.49;74.93;99201.69;6255165;28;20044;-74
2024/03/11 11:46:46;;;;;;;11.82;4.35;;;;;;;15.42;73.88;99211.13;6243906;28;20148;-68
2024/03/11 11:49:48;;;;;;;11.27;4.70;;;;;;;15.48;73.66;99200.03;6257492;28;20095;-68
2024/03/11 11:52:57;;;;;;;13.45;5.95;;;;;;;15.46;74.03;99201.97;6270015;28;20049;-68
2024/03/11 11:56:00;;;;;;;14.68;4.90;;;;;;;15.50;72.35;99195.44;6271034;28;20049;-68
2024/03/11 11:59:04;;;;;;;14.98;5.25;;;;;;;15.49;72.61;99196.44;6255299;28;20511;-69
2024/03/11 12:02:15;;;;;;;14.80;5.15;;;;;;;15.50;72.99;99196.28;6247401;28;20085;-69
2024/03/11 12:05:18;;;;;;;10.07;4.80;;;;;;;15.67;71.21;99189.41;6247345;28;20060;-68
2024/03/11 12:08:21;;;;;;;10.35;4.68;;;;;;;15.71;72.97;99193.41;6269870;28;20048;-68
2024/03/11 12:11:24;;;;;;;11.38;4.50;;;;;;;15.62;72.75;99191.66;6247284;28;20045;-69
2024/03/11 12:14:25;;;;;;;11.65;6.03;;;;;;;15.61;73.72;99181.28;6246988;28;20496;-69
2024/03/11 12:17:31;;;;;;;17.67;6.07;;;;;;;15.37;73.06;99184.44;6246103;28;20050;-68
2024/03/11 12:20:32;;;;;;;9.90;5.45;;;;;;;15.37;73.54;99179.19;6246869;28;20477;-68
2024/03/11 12:23:34;;;;;;;12.63;5.13;;;;;;;15.29;72.97;99186.00;6259789;28;20132;-68
2024/03/11 12:26:38;;;;;;;11.57;5.15;;;;;;;15.22;73.07;99177.03;6261924;28;20083;-74
2024/03/11 12:29:41;;;;;;;11.55;4.75;;;;;;;15.24;74.69;99184.78;6263008;28;20049;-74
2024/03/11 12:32:42;;;;;;;15.15;4.75;;;;;;;15.06;75.01;99175.03;6236338;28;20505;-68
2024/03/11 12:35:44;;;;;;;10.77;4.40;;;;;;;15.02;74.45;99175.47;6239167;28;20095;-68
2024/03/11 12:38:48;;;;;;;7.80;4.40;;;;;;;15.13;74.76;99174.44;6252447;28;20488;-68
2024/03/11 12:41:49;;;;;;;11.63;4.15;;;;;;;15.01;75.79;99166.75;6257058;28;20363;-74
2024/03/11 12:44:54;;;;;;;10.98;4.75;;;;;;;15.07;75.60;99165.34;6248850;28;20053;-75
2024/03/11 12:47:57;;;;;;;10.32;4.57;;;;;;;15.05;75.78;99155.00;6246531;28;20054;-75
2024/03/11 12:50:59;;;;;;;11.45;5.25;;;;;;;15.21;74.37;99151.72;6246122;28;20072;-74
2024/03/11 12:54:18;;;;;;;16.08;5.50;;;;;;;15.48;74.21;99153.56;6246587;28;20058;-74
2024/03/11 12:57:23;;;;;;;13.10;5.90;;;;;;;15.43;73.30;99149.69;6246694;28;20556;-74
2024/03/11 13:00:23;;;;;;;8.95;5.55;;;;;;;15.56;72.86;99147.53;6244706;28;20115;-67
2024/03/11 13:03:26;;;;;;;13.27;6.07;;;;;;;15.60;72.54;99150.72;6249287;28;20054;-68
2024/03/11 13:06:27;;;;;;;9.18;4.97;;;;;;;15.71;74.03;99143.44;6251213;28;20045;-68
2024/03/11 13:09:27;;;;;;;15.05;5.95;;;;;;;15.63;72.53;99137.28;6251640;28;20148;-68
2024/03/11 13:12:29;;;;;;;15.65;6.13;;;;;;;15.70;74.25;99133.06;6249864;28;20045;-68
2024/03/11 13:15:31;;;;;;;13.73;5.55;;;;;;;15.78;73.70;99135.81;6249716;28;20057;-68
2024/03/11 13:18:33;;;;;;;23.85;10.68;;;;;;;15.75;72.17;99128.22;6250024;28;20059;-68
2024/03/11 13:21:38;;;;;;;27.70;13.25;;;;;;;15.89;72.44;99137.38;6250753;28;20103;-68
2024/03/11 13:24:41;;;;;;;16.70;7.43;;;;;;;15.86;71.79;99135.88;6249809;28;20053;-68
2024/03/11 13:27:42;;;;;;;16.50;7.65;;;;;;;15.89;71.59;99135.56;6252142;28;20103;-68
2024/03/11 13:30:44;;;;;;;16.15;7.38;;;;;;;15.95;71.79;99139.41;6258543;28;20497;-67
2024/03/11 13:33:45;;;;;;;12.52;5.10;;;;;;;15.85;71.99;99142.09;6250351;28;20147;-68
2024/03/11 13:36:49;;;;;;;11.15;4.75;;;;;;;15.75;73.52;99159.78;6250501;28;20072;-67
2024/03/11 13:39:50;;;;;;;13.05;5.45;;;;;;;15.85;71.26;99138.66;6249057;28;20057;-68
2024/03/11 13:42:50;;;;;;;19.60;5.32;;;;;;;16.03;75.13;99143.94;6250458;28;20048;-75
2024/03/11 13:45:52;;;;;;;7.10;3.53;;;;;;;16.02;68.24;99129.97;6265585;28;20115;-75
2024/03/11 13:48:56;;;;;;;10.52;5.45;;;;;;;16.36;72.28;99123.97;6263676;28;20461;-75
2024/03/11 13:52:00;;;;;;;10.57;4.80;;;;;;;16.69;71.16;99124.19;6252192;28;20057;-75
2024/03/11 13:55:01;;;;;;;9.13;5.00;;;;;;;16.78;70.40;99130.31;6263403;28;20061;-75
2024/03/11 13:58:02;;;;;;;10.52;4.63;;;;;;;16.58;68.04;99117.38;6281785;28;20132;-74
2024/03/11 14:01:07;;;;;;;9.70;4.25;;;;;;;16.56;69.51;99103.53;6248403;28;20060;-74
2024/03/11 14:04:11;;;;;;;12.50;4.15;;;;;;;16.42;69.35;99099.66;6256307;28;20045;-74
2024/03/11 14:07:12;;;;;;;11.10;4.40;;;;;;;16.35;69.18;99096.00;6257816;28;20053;-75
2024/03/11 14:10:13;;;;;;;9.18;4.03;;;;;;;16.11;70.21;99100.09;6263820;28;20606;-75
2024/03/11 14:13:17;;;;;;;9.97;3.97;;;;;;;16.01;69.85;99098.53;6256780;28;20045;-75
2024/03/11 14:16:19;;;;;;;7.55;3.83;;;;;;;16.04;71.39;99088.53;6260599;28;20278;-74
2024/03/11 14:19:20;;;;;;;10.80;4.23;;;;;;;15.96;70.76;99082.34;6254351;28;20073;-75